createdAt,value
2018-11-14T00:02:25.858Z,25.57
2018-11-14T00:04:53.971Z,30.17
2018-11-14T00:07:22.268Z,27.20
2018-11-14T00:09:50.430Z,31.10
2018-11-14T00:12:19.025Z,30.47
2018-11-14T00:14:47.302Z,26.00
2018-11-14T00:17:15.452Z,22.57
2018-11-14T00:19:43.828Z,25.87
2018-11-14T00:22:12.043Z,31.17
2018-11-14T00:24:40.164Z,30.53
2018-11-14T00:27:08.553Z,23.63
2018-11-14T00:29:37.012Z,28.10
2018-11-14T00:32:05.169Z,24.17
2018-11-14T00:34:33.396Z,24.80
2018-11-14T00:37:01.674Z,27.17
2018-11-14T00:39:30.398Z,27.90
2018-11-14T00:41:59.034Z,28.17
2018-11-14T00:44:27.311Z,28.90
2018-11-14T00:46:55.572Z,29.23
2018-11-14T00:49:23.764Z,27.63
2018-11-14T00:51:54.759Z,27.20
2018-11-14T00:54:22.877Z,27.63
2018-11-14T00:56:51.165Z,21.00
2018-11-14T00:59:19.246Z,32.27
2018-11-14T01:01:47.613Z,24.67
2018-11-14T01:04:16.116Z,23.17
2018-11-14T01:06:44.403Z,27.30
2018-11-14T01:09:13.197Z,23.20
2018-11-14T01:11:41.479Z,23.83
2018-11-14T01:14:10.506Z,29.90
2018-11-14T01:16:38.830Z,23.93
2018-11-14T01:19:08.004Z,22.87
2018-11-14T01:21:36.470Z,33.17
2018-11-14T01:24:04.988Z,28.47
2018-11-14T01:26:33.456Z,25.60
2018-11-14T01:29:01.732Z,22.20
2018-11-14T01:31:30.156Z,21.47
2018-11-14T01:33:58.216Z,23.60
2018-11-14T01:36:26.409Z,27.73
2018-11-14T01:38:54.638Z,20.63
2018-11-14T01:41:23.097Z,25.47
2018-11-14T01:43:51.516Z,26.10
2018-11-14T01:46:19.953Z,26.43
2018-11-14T01:48:48.176Z,25.60
2018-11-14T01:51:16.701Z,27.87
2018-11-14T01:53:45.205Z,29.57
2018-11-14T01:56:13.635Z,28.13
2018-11-14T01:58:42.029Z,26.10
2018-11-14T02:01:10.651Z,21.67
2018-11-14T02:03:38.957Z,23.93
2018-11-14T02:06:07.520Z,20.83
2018-11-14T02:08:35.945Z,22.00
2018-11-14T02:11:04.482Z,22.97
2018-11-14T02:13:33.050Z,22.40
2018-11-14T02:16:01.936Z,21.93
2018-11-14T02:18:30.309Z,24.43
2018-11-14T02:20:58.694Z,20.50
2018-11-14T02:23:27.074Z,21.57
2018-11-14T02:25:55.638Z,19.20
2018-11-14T02:28:23.965Z,35.13
2018-11-14T02:30:52.262Z,26.63
2018-11-14T02:33:20.618Z,25.93
2018-11-14T02:35:48.938Z,23.83
2018-11-14T02:38:17.288Z,20.87
2018-11-14T02:40:45.602Z,22.77
2018-11-14T02:43:14.020Z,18.63
2018-11-14T02:45:42.412Z,20.00
2018-11-14T02:48:10.786Z,24.40
2018-11-14T02:50:39.473Z,20.23
2018-11-14T02:53:08.044Z,18.40
2018-11-14T02:55:36.449Z,16.23
2018-11-14T02:58:05.178Z,20.10
2018-11-14T03:00:33.791Z,16.17
2018-11-14T03:03:02.256Z,20.07
2018-11-14T03:05:30.372Z,18.27
2018-11-14T03:07:59.030Z,22.13
2018-11-14T03:10:27.354Z,19.53
2018-11-14T03:12:55.924Z,24.07
2018-11-14T03:15:24.566Z,20.30
2018-11-14T03:17:52.931Z,24.67
2018-11-14T03:20:21.935Z,19.33
2018-11-14T03:22:50.631Z,21.83
2018-11-14T03:25:19.194Z,26.00
2018-11-14T03:27:47.597Z,17.53
2018-11-14T03:30:17.205Z,30.70
2018-11-14T03:32:45.695Z,30.10
2018-11-14T03:35:14.579Z,26.40
2018-11-14T03:37:43.250Z,27.60
2018-11-14T03:40:13.544Z,28.33
2018-11-14T03:42:41.946Z,30.27
2018-11-14T03:45:11.928Z,26.50
2018-11-14T03:47:40.867Z,27.73
2018-11-14T03:50:09.546Z,19.17
2018-11-14T03:52:38.032Z,32.80
2018-11-14T03:55:06.529Z,27.43
2018-11-14T03:57:35.079Z,21.00
2018-11-14T04:00:04.422Z,20.80
2018-11-14T04:02:32.944Z,23.73
2018-11-14T04:05:01.312Z,30.10
2018-11-14T04:07:29.735Z,26.00
2018-11-14T04:09:58.220Z,31.40
2018-11-14T04:12:26.567Z,28.07
2018-11-14T04:14:54.951Z,24.17
2018-11-14T04:17:23.352Z,25.07
2018-11-14T04:19:51.840Z,26.50
2018-11-14T04:22:20.319Z,22.50
2018-11-14T04:24:48.698Z,26.90
2018-11-14T04:27:17.296Z,27.67
2018-11-14T04:29:45.661Z,25.27
2018-11-14T04:32:14.085Z,31.60
2018-11-14T04:34:42.252Z,34.87
2018-11-14T04:37:10.760Z,30.47
2018-11-14T04:39:39.172Z,24.50
2018-11-14T04:42:07.762Z,25.03
2018-11-14T04:44:36.184Z,19.30
2018-11-14T04:47:05.076Z,33.50
2018-11-14T04:49:33.783Z,26.90
2018-11-14T04:52:02.278Z,25.43
2018-11-14T04:54:30.728Z,29.60
2018-11-14T04:56:59.130Z,27.10
2018-11-14T04:59:27.654Z,28.63
2018-11-14T05:02:02.619Z,25.70
2018-11-14T05:04:31.166Z,25.40
2018-11-14T05:06:59.519Z,23.13
2018-11-14T05:09:27.859Z,20.53
2018-11-14T05:11:56.505Z,18.20
2018-11-14T05:14:24.949Z,18.33
2018-11-14T05:16:53.301Z,19.83
2018-11-14T05:19:21.763Z,20.33
2018-11-14T05:21:50.318Z,28.80
2018-11-14T05:24:18.707Z,16.90
2018-11-14T05:26:47.580Z,23.87
2018-11-14T05:29:16.069Z,31.97
2018-11-14T05:31:44.960Z,33.07
2018-11-14T05:34:13.547Z,28.00
2018-11-14T05:36:42.092Z,27.50
2018-11-14T05:39:11.374Z,26.07
2018-11-14T05:41:39.848Z,24.43
2018-11-14T05:44:08.479Z,26.97
2018-11-14T05:46:37.060Z,32.57
2018-11-14T05:49:05.976Z,34.37
2018-11-14T05:51:34.350Z,33.40
2018-11-14T05:54:03.039Z,28.23
2018-11-14T05:56:31.492Z,32.10
2018-11-14T05:58:59.751Z,27.03
2018-11-14T06:01:28.274Z,24.17
2018-11-14T06:03:56.573Z,29.23
2018-11-14T06:06:24.958Z,25.80
2018-11-14T06:08:53.644Z,24.93
2018-11-14T06:11:22.161Z,32.17
2018-11-14T06:13:50.783Z,31.30
2018-11-14T06:16:19.262Z,21.83
2018-11-14T06:18:47.483Z,25.93
2018-11-14T06:21:16.125Z,23.53
2018-11-14T06:23:44.895Z,21.70
2018-11-14T06:26:13.335Z,27.57
2018-11-14T06:28:42.013Z,23.37
2018-11-14T06:31:10.509Z,19.37
2018-11-14T06:33:39.743Z,20.57
2018-11-14T06:36:08.343Z,20.23
2018-11-14T06:38:36.871Z,19.50
2018-11-14T06:41:05.614Z,18.50
2018-11-14T06:43:33.927Z,13.33
2018-11-14T06:46:02.441Z,23.97
2018-11-14T06:48:31.756Z,14.07
2018-11-14T06:51:00.924Z,26.23
2018-11-14T06:53:29.322Z,19.40
2018-11-14T06:55:57.908Z,23.33
2018-11-14T06:58:26.449Z,17.93
2018-11-14T07:00:55.116Z,35.43
2018-11-14T07:03:23.701Z,27.77
2018-11-14T07:05:52.271Z,33.30
2018-11-14T07:08:21.422Z,34.10
2018-11-14T07:10:50.083Z,27.23
2018-11-14T07:13:18.953Z,32.27
2018-11-14T07:15:47.815Z,21.27
2018-11-14T07:18:16.627Z,37.53
2018-11-14T07:20:46.868Z,20.83
2018-11-14T07:23:15.804Z,46.00
2018-11-14T07:25:44.305Z,19.77
2018-11-14T07:28:13.400Z,21.67
2018-11-14T07:30:44.444Z,27.47
2018-11-14T07:33:13.318Z,20.00
2018-11-14T07:35:41.972Z,27.40
2018-11-14T07:38:44.139Z,19.27
2018-11-14T07:41:15.503Z,25.57
2018-11-14T07:43:44.384Z,30.77
2018-11-14T07:46:13.466Z,36.77
2018-11-14T07:48:42.556Z,25.97
2018-11-14T07:51:11.036Z,23.50
2018-11-14T07:53:39.609Z,20.97
2018-11-14T07:56:07.992Z,34.70
2018-11-14T07:58:36.554Z,22.23
2018-11-14T08:01:05.223Z,21.60
2018-11-14T08:03:33.610Z,20.43
2018-11-14T08:06:02.207Z,20.43
2018-11-14T08:08:31.128Z,27.87
2018-11-14T08:10:59.662Z,23.00
2018-11-14T08:13:29.322Z,29.03
2018-11-14T08:15:59.139Z,34.30
2018-11-14T08:18:27.995Z,27.70
2018-11-14T08:20:56.825Z,29.67
2018-11-14T08:23:25.183Z,30.10
2018-11-14T08:25:53.625Z,29.33
2018-11-14T08:28:21.973Z,26.17
2018-11-14T08:30:50.428Z,33.43
2018-11-14T08:33:19.223Z,31.13
2018-11-14T08:35:47.769Z,24.27
2018-11-14T08:38:16.559Z,21.23
2018-11-14T08:40:45.111Z,25.90
2018-11-14T08:43:13.653Z,26.80
2018-11-14T08:45:42.231Z,29.07
2018-11-14T08:48:10.623Z,23.67
2018-11-14T08:50:39.085Z,20.73
2018-11-14T08:53:08.255Z,23.37
2018-11-14T08:55:36.680Z,26.97
2018-11-14T08:58:05.618Z,23.37
2018-11-14T09:00:34.121Z,28.60
2018-11-14T09:03:02.611Z,28.73
2018-11-14T09:05:31.061Z,28.10
2018-11-14T09:07:59.558Z,27.30
2018-11-14T09:10:28.022Z,27.60
2018-11-14T09:12:57.092Z,23.47
2018-11-14T09:15:25.933Z,31.40
2018-11-14T09:17:54.479Z,25.67
2018-11-14T09:20:24.846Z,30.67
2018-11-14T09:22:53.468Z,32.43
2018-11-14T09:25:27.121Z,28.40
2018-11-14T09:27:55.709Z,26.07
2018-11-14T09:30:25.018Z,28.83
2018-11-14T09:32:53.451Z,26.60
2018-11-14T09:35:22.767Z,28.87
2018-11-14T09:37:51.644Z,25.87
2018-11-14T09:40:22.223Z,26.00
2018-11-14T09:42:50.789Z,23.40
2018-11-14T09:45:20.617Z,29.93
2018-11-14T09:47:49.533Z,29.57
2018-11-14T09:50:22.397Z,29.97
2018-11-14T09:52:53.769Z,28.93
2018-11-14T09:55:23.557Z,27.40
2018-11-14T09:57:52.123Z,25.60
2018-11-14T10:00:21.824Z,34.00
2018-11-14T10:03:02.546Z,31.80
2018-11-14T10:05:34.727Z,35.77
2018-11-14T10:08:04.567Z,26.80
2018-11-14T10:10:40.513Z,26.37
2018-11-14T10:13:10.581Z,27.87
2018-11-14T10:15:39.255Z,25.10
2018-11-14T10:18:07.800Z,35.07
2018-11-14T10:20:36.263Z,37.37
2018-11-14T10:23:04.833Z,35.67
2018-11-14T10:25:33.259Z,38.10
2018-11-14T10:28:01.953Z,34.40
2018-11-14T10:30:30.737Z,27.03
2018-11-14T10:32:59.316Z,25.13
2018-11-14T10:35:28.125Z,27.60
2018-11-14T10:37:56.837Z,23.47
2018-11-14T10:40:26.595Z,26.10
2018-11-14T10:42:55.113Z,32.43
2018-11-14T10:45:24.703Z,32.57
2018-11-14T10:47:53.094Z,33.13
2018-11-14T10:50:23.561Z,29.03
2018-11-14T10:52:52.062Z,27.43
2018-11-14T10:55:21.036Z,25.10
2018-11-14T10:57:49.517Z,28.10
2018-11-14T11:00:28.108Z,32.10
2018-11-14T11:03:02.292Z,22.93
2018-11-14T11:05:35.944Z,29.20
2018-11-14T11:08:10.288Z,23.90
2018-11-14T11:10:44.209Z,29.73
2018-11-14T11:13:21.927Z,27.90
2018-11-14T11:15:55.703Z,28.90
2018-11-14T11:18:25.299Z,28.07
2018-11-14T11:20:54.004Z,27.87
2018-11-14T11:23:22.524Z,29.10
2018-11-14T11:25:50.968Z,24.77
2018-11-14T11:28:20.504Z,27.03
2018-11-14T11:30:49.267Z,24.67
2018-11-14T11:33:17.705Z,28.57
2018-11-14T11:35:46.210Z,27.50
2018-11-14T11:38:14.907Z,27.60
2018-11-14T11:40:43.213Z,26.73
2018-11-14T11:43:11.402Z,26.07
2018-11-14T11:45:39.917Z,29.60
2018-11-14T11:48:08.292Z,30.80
2018-11-14T11:50:36.641Z,26.57
2018-11-14T11:53:04.976Z,23.80
2018-11-14T11:55:33.303Z,26.40
2018-11-14T11:58:01.373Z,24.83
2018-11-14T12:00:29.786Z,29.57
2018-11-14T12:02:58.761Z,34.13
2018-11-14T12:05:27.025Z,33.47
2018-11-14T12:07:56.406Z,32.30
2018-11-14T12:10:25.247Z,35.07
2018-11-14T12:12:53.673Z,32.27
2018-11-14T12:15:22.270Z,35.50
2018-11-14T12:17:50.674Z,39.73
2018-11-14T12:20:18.916Z,30.93
2018-11-14T12:22:47.228Z,30.90
2018-11-14T12:25:16.292Z,30.07
2018-11-14T12:27:44.931Z,29.53
2018-11-14T12:30:15.529Z,31.63
2018-11-14T12:32:43.911Z,30.13
2018-11-14T12:35:15.845Z,31.63
2018-11-14T12:37:44.737Z,38.60
2018-11-14T12:40:14.278Z,32.17
2018-11-14T12:42:42.828Z,36.13
2018-11-14T12:45:13.495Z,35.97
2018-11-14T12:47:42.299Z,35.90
2018-11-14T12:50:12.557Z,36.50
2018-11-14T12:52:41.888Z,36.40
2018-11-14T12:55:13.238Z,40.27
2018-11-14T12:57:41.793Z,42.27
2018-11-14T13:00:12.071Z,37.40
2018-11-14T13:02:40.520Z,43.33
2018-11-14T13:05:09.862Z,33.90
2018-11-14T13:07:38.490Z,33.40
2018-11-14T13:10:08.507Z,40.60
2018-11-14T13:12:37.030Z,42.47
2018-11-14T13:15:06.038Z,44.63
2018-11-14T13:17:34.358Z,38.40
2018-11-14T13:20:03.141Z,37.43
2018-11-14T13:22:31.675Z,33.83
2018-11-14T13:25:00.517Z,56.37
2018-11-14T13:27:28.953Z,47.33
2018-11-14T13:29:57.366Z,42.57
2018-11-14T13:32:26.057Z,47.33
2018-11-14T13:34:54.390Z,38.43
2018-11-14T13:37:23.705Z,36.17
2018-11-14T13:39:52.200Z,42.57
2018-11-14T13:42:21.069Z,35.10
2018-11-14T13:44:50.197Z,40.43
2018-11-14T13:47:19.062Z,40.30
2018-11-14T13:49:48.509Z,36.30
2018-11-14T13:52:17.436Z,43.40
2018-11-14T13:54:46.456Z,45.13
2018-11-14T13:57:15.167Z,44.60
2018-11-14T13:59:44.015Z,59.63
2018-11-14T14:02:12.848Z,39.60
2018-11-14T14:04:41.786Z,37.67
2018-11-14T14:07:10.263Z,34.60
2018-11-14T14:09:38.881Z,33.23
2018-11-14T14:12:07.676Z,32.63
2018-11-14T14:14:35.934Z,47.03
2018-11-14T14:17:04.398Z,41.10
2018-11-14T14:19:33.126Z,37.90
2018-11-14T14:22:01.901Z,37.13
2018-11-14T14:24:30.364Z,40.13
2018-11-14T14:26:59.008Z,39.03
2018-11-14T14:29:30.813Z,42.67
2018-11-14T14:31:59.693Z,37.73
2018-11-14T14:34:28.431Z,35.97
2018-11-14T14:36:56.968Z,36.27
2018-11-14T14:39:25.614Z,30.97
2018-11-14T14:41:54.277Z,30.47
2018-11-14T14:44:23.313Z,31.27
2018-11-14T14:46:51.971Z,37.13
2018-11-14T14:49:20.496Z,28.30
2018-11-14T14:51:49.277Z,27.90
2018-11-14T14:54:17.916Z,29.27
2018-11-14T14:56:46.506Z,33.77
2018-11-14T14:59:15.035Z,27.70
2018-11-14T15:01:43.809Z,34.87
2018-11-14T15:04:12.669Z,27.60
2018-11-14T15:06:41.348Z,30.33
2018-11-14T15:09:10.398Z,30.43
2018-11-14T15:11:39.091Z,26.13
2018-11-14T15:14:07.839Z,25.37
2018-11-14T15:16:36.641Z,25.33
2018-11-14T15:19:05.219Z,23.47
2018-11-14T15:21:33.860Z,26.30
2018-11-14T15:24:02.559Z,24.13
2018-11-14T15:26:31.067Z,20.23
2018-11-14T15:28:59.681Z,21.50
2018-11-14T15:31:28.424Z,25.53
2018-11-14T15:33:57.206Z,24.47
2018-11-14T15:36:25.715Z,21.83
2018-11-14T15:38:54.432Z,25.70
2018-11-14T15:41:23.190Z,26.73
2018-11-14T15:43:51.934Z,21.77
2018-11-14T15:46:20.578Z,26.77
2018-11-14T15:48:49.353Z,26.17
2018-11-14T15:51:18.150Z,25.83
2018-11-14T15:53:46.818Z,23.03
2018-11-14T15:56:15.472Z,25.17
2018-11-14T15:58:44.064Z,22.47
2018-11-14T16:01:12.628Z,22.20
2018-11-14T16:03:41.381Z,20.27
2018-11-14T16:06:10.247Z,25.20
2018-11-14T16:08:38.899Z,25.77
2018-11-14T16:11:07.560Z,21.83
2018-11-14T16:13:36.306Z,20.97
2018-11-14T16:16:04.978Z,25.37
2018-11-14T16:18:33.764Z,23.40
2018-11-14T16:21:02.282Z,21.27
2018-11-14T16:23:30.932Z,19.67
2018-11-14T16:25:59.610Z,17.90
2018-11-14T16:28:28.381Z,18.13
2018-11-14T16:30:57.111Z,22.83
2018-11-14T16:33:26.544Z,19.70
2018-11-14T16:35:55.806Z,16.07
2018-11-14T16:38:24.809Z,17.60
2018-11-14T16:40:53.839Z,17.30
2018-11-14T16:43:22.695Z,18.50
2018-11-14T16:45:51.366Z,21.57
2018-11-14T16:48:20.012Z,18.17
2018-11-14T16:50:48.702Z,17.17
2018-11-14T16:53:22.336Z,19.70
2018-11-14T16:55:51.321Z,16.17
2018-11-14T16:58:20.480Z,16.43
2018-11-14T17:00:50.465Z,13.80
2018-11-14T17:03:19.222Z,15.87
2018-11-14T17:05:48.026Z,18.73
2018-11-14T17:08:16.793Z,18.47
2018-11-14T17:10:45.478Z,18.47
2018-11-14T17:13:14.261Z,14.83
2018-11-14T17:15:42.988Z,16.93
2018-11-14T17:18:11.502Z,17.97
2018-11-14T17:20:40.270Z,18.50
2018-11-14T17:23:08.943Z,15.03
2018-11-14T17:25:37.639Z,18.50
2018-11-14T17:28:06.279Z,15.07
2018-11-14T17:30:34.861Z,16.60
2018-11-14T17:33:04.290Z,16.00
2018-11-14T17:35:32.643Z,14.87
2018-11-14T17:38:01.188Z,14.87
2018-11-14T17:40:29.876Z,18.50
2018-11-14T17:42:58.565Z,14.97
2018-11-14T17:45:29.237Z,18.03
2018-11-14T17:47:58.328Z,14.53
2018-11-14T17:50:29.526Z,15.70
2018-11-14T17:53:00.456Z,13.20
2018-11-14T17:55:29.359Z,11.60
2018-11-14T17:57:58.002Z,13.17
2018-11-14T18:00:27.677Z,11.53
2018-11-14T18:02:56.249Z,14.00
2018-11-14T18:05:25.702Z,13.47
2018-11-14T18:07:55.479Z,11.77
2018-11-14T18:10:25.070Z,11.77
2018-11-14T18:12:54.725Z,13.13
2018-11-14T18:15:23.387Z,14.83
2018-11-14T18:17:52.820Z,11.37
2018-11-14T18:20:22.615Z,14.33
2018-11-14T18:22:51.670Z,10.33
2018-11-14T18:25:20.395Z,12.60
2018-11-14T18:27:49.191Z,14.47
2018-11-14T18:30:20.247Z,11.77
2018-11-14T18:32:48.828Z,9.70
2018-11-14T18:35:18.541Z,14.60
2018-11-14T18:37:47.980Z,12.67
2018-11-14T18:40:19.466Z,12.03
2018-11-14T18:42:48.697Z,14.00
2018-11-14T18:45:25.052Z,14.47
2018-11-14T18:47:54.339Z,13.53
2018-11-14T18:50:23.582Z,10.37
2018-11-14T18:52:52.429Z,12.00
2018-11-14T18:55:22.582Z,11.90
2018-11-14T18:57:51.663Z,13.33
2018-11-14T19:00:22.969Z,10.60
2018-11-14T19:02:51.401Z,13.43
2018-11-14T19:05:20.732Z,12.00
2018-11-14T19:07:49.405Z,11.30
2018-11-14T19:10:19.620Z,15.63
2018-11-14T19:12:49.113Z,13.40
2018-11-14T19:15:20.853Z,14.33
2018-11-14T19:17:49.355Z,14.77
2018-11-14T19:20:20.503Z,14.07
2018-11-14T19:22:49.220Z,14.73
2018-11-14T19:25:21.083Z,17.13
2018-11-14T19:27:49.790Z,11.37
2018-11-14T19:30:22.592Z,13.57
2018-11-14T19:32:51.841Z,12.20
2018-11-14T19:35:20.341Z,13.67
2018-11-14T19:37:49.937Z,11.53
2018-11-14T19:40:24.119Z,13.73
2018-11-14T19:42:54.217Z,12.80
2018-11-14T19:45:24.111Z,12.00
2018-11-14T19:47:52.801Z,15.70
2018-11-14T19:50:22.081Z,14.27
2018-11-14T19:52:51.050Z,12.17
2018-11-14T19:55:21.350Z,12.37
2018-11-14T19:57:50.797Z,13.23
2018-11-14T20:00:22.667Z,14.63
2018-11-14T20:02:51.395Z,15.17
2018-11-14T20:05:20.920Z,15.20
2018-11-14T20:07:49.828Z,10.83
2018-11-14T20:10:20.566Z,12.13
2018-11-14T20:12:49.747Z,14.77
2018-11-14T20:15:19.718Z,13.77
2018-11-14T20:17:49.081Z,10.77
2018-11-14T20:20:20.350Z,12.53
2018-11-14T20:22:49.037Z,13.43
2018-11-14T20:25:17.675Z,11.93
2018-11-14T20:27:46.906Z,13.67
2018-11-14T20:30:18.250Z,12.27
2018-11-14T20:32:46.992Z,13.03
2018-11-14T20:35:16.730Z,11.17
2018-11-14T20:37:45.663Z,11.77
2018-11-14T20:40:16.214Z,13.03
2018-11-14T20:42:45.360Z,12.10
2018-11-14T20:45:18.448Z,10.30
2018-11-14T20:47:47.149Z,13.50
2018-11-14T20:50:17.348Z,14.37
2018-11-14T20:52:46.852Z,13.43
2018-11-14T20:55:15.571Z,14.73
2018-11-14T20:57:44.483Z,13.10
2018-11-14T21:00:24.716Z,18.77
2018-11-14T21:02:53.756Z,12.00
2018-11-14T21:05:22.696Z,13.70
2018-11-14T21:07:51.434Z,15.13
2018-11-14T21:10:21.251Z,14.03
2018-11-14T21:12:50.674Z,13.13
2018-11-14T21:15:22.364Z,12.93
2018-11-14T21:17:51.736Z,10.57
2018-11-14T21:20:20.366Z,12.67
2018-11-14T21:22:49.618Z,12.27
2018-11-14T21:25:19.505Z,10.93
2018-11-14T21:27:48.636Z,16.77
2018-11-14T21:30:18.557Z,9.97
2018-11-14T21:32:47.552Z,13.63
2018-11-14T21:35:19.007Z,12.23
2018-11-14T21:37:50.114Z,12.70
2018-11-14T21:40:18.830Z,10.73
2018-11-14T21:42:47.501Z,15.27
2018-11-14T21:45:18.308Z,13.77
2018-11-14T21:47:52.426Z,14.43
2018-11-14T21:50:21.936Z,14.00
2018-11-14T21:52:50.475Z,13.27
2018-11-14T21:55:19.028Z,12.43
2018-11-14T21:57:47.787Z,15.67
2018-11-14T22:00:20.074Z,12.00
2018-11-14T22:02:49.909Z,13.03
2018-11-14T22:05:18.826Z,13.17
2018-11-14T22:07:47.737Z,13.47
2018-11-14T22:10:17.970Z,12.73
2018-11-14T22:12:47.091Z,15.60
2018-11-14T22:15:16.796Z,12.93
2018-11-14T22:17:46.187Z,10.33
2018-11-14T22:20:16.020Z,13.30
2018-11-14T22:22:45.356Z,13.03
2018-11-14T22:25:15.083Z,13.07
2018-11-14T22:27:43.949Z,12.03
2018-11-14T22:30:17.672Z,13.00
2018-11-14T22:32:46.500Z,14.03
2018-11-14T22:35:16.737Z,12.70
2018-11-14T22:37:45.202Z,11.93
2018-11-14T22:40:20.783Z,13.87
2018-11-14T22:42:59.364Z,12.37
2018-11-14T22:48:23.406Z,13.47
2018-11-14T22:50:52.156Z,12.10
2018-11-14T22:53:20.713Z,14.43
2018-11-14T22:55:49.197Z,11.83
2018-11-14T22:58:17.778Z,13.00
2018-11-14T23:00:46.566Z,14.07
2018-11-14T23:03:14.899Z,15.27
2018-11-14T23:05:43.440Z,16.13
2018-11-14T23:08:11.867Z,13.50
2018-11-14T23:10:41.532Z,12.63
2018-11-14T23:13:09.948Z,13.40
2018-11-14T23:15:38.425Z,12.70
2018-11-14T23:18:06.953Z,11.43
2018-11-14T23:20:35.264Z,14.53
2018-11-14T23:23:03.969Z,13.40
2018-11-14T23:25:32.337Z,17.47
2018-11-14T23:28:00.849Z,12.20
2018-11-14T23:30:29.147Z,14.13
2018-11-14T23:32:57.755Z,14.50
2018-11-14T23:35:30.122Z,14.03
2018-11-14T23:37:59.602Z,12.23
2018-11-14T23:40:28.221Z,14.77
2018-11-14T23:42:56.827Z,14.23
2018-11-14T23:45:25.965Z,12.10
2018-11-14T23:47:54.143Z,11.83
2018-11-14T23:50:26.549Z,15.10
2018-11-14T23:52:55.882Z,12.57
2018-11-14T23:55:24.978Z,13.20
2018-11-14T23:57:53.681Z,13.50
